Time;durP1;ratioP1;P1;durP2;ratioP2;P2;SDS_P1;SDS_P2;PMS_P1;PMS_P2;Temp;Humidity;BMP_temperature;BMP_pressure;BME280_temperature;BME280_humidity;BME280_pressure;Samples;Min_cycle;Max_cycle;Signal;HPM_P1;HPM_P2
2021/08/12 00:01:27;;;;;;;13.17;9.80;;;;;;;23.21;100.00;101284.56;5052751;28;20172;-76
2021/08/12 00:03:53;;;;;;;15.03;10.27;;;;;;;23.20;100.00;101288.22;5052510;28;20621;-75
2021/08/12 00:06:18;;;;;;;13.00;10.60;;;;;;;23.18;100.00;101287.56;5052102;28;20180;-76
2021/08/12 00:08:43;;;;;;;17.70;11.30;;;;;;;23.18;100.00;101292.91;5052733;28;20248;-73
2021/08/12 00:11:09;;;;;;;21.07;11.00;;;;;;;23.17;100.00;101291.25;5052327;28;20625;-74
2021/08/12 00:13:35;;;;;;;16.93;10.70;;;;;;;23.09;100.00;101289.44;5052578;28;20165;-74
2021/08/12 00:16:01;;;;;;;18.67;10.37;;;;;;;23.08;100.00;101287.75;5051958;28;20601;-76
2021/08/12 00:18:27;;;;;;;20.43;11.67;;;;;;;23.04;100.00;101282.88;5051749;28;20649;-74
2021/08/12 00:20:52;;;;;;;18.40;12.20;;;;;;;22.99;100.00;101283.41;5051944;28;20411;-74
2021/08/12 00:23:18;;;;;;;13.43;10.87;;;;;;;22.99;100.00;101283.41;5050656;28;20199;-74
2021/08/12 00:25:45;;;;;;;16.07;10.50;;;;;;;22.95;100.00;101288.28;5051955;28;20173;-76
2021/08/12 00:28:12;;;;;;;18.50;11.47;;;;;;;22.88;100.00;101292.63;5052114;28;20498;-75
2021/08/12 00:30:37;;;;;;;14.77;11.43;;;;;;;22.93;100.00;101290.28;5051996;28;20864;-75
2021/08/12 00:33:03;;;;;;;23.47;12.60;;;;;;;22.94;100.00;101286.59;5052227;28;20411;-75
2021/08/12 00:35:28;;;;;;;17.10;11.43;;;;;;;22.93;100.00;101292.13;5051726;28;20562;-74
2021/08/12 00:37:54;;;;;;;15.57;11.40;;;;;;;22.94;100.00;101294.63;5051571;28;20192;-75
2021/08/12 00:40:21;;;;;;;19.90;9.80;;;;;;;23.01;100.00;101275.19;5051435;28;20177;-75
2021/08/12 00:42:46;;;;;;;15.70;8.73;;;;;;;23.01;100.00;101273.34;5052077;28;20645;-75
2021/08/12 00:45:12;;;;;;;21.70;9.90;;;;;;;22.98;100.00;101274.53;5051630;28;20462;-75
2021/08/12 00:47:37;;;;;;;11.70;8.17;;;;;;;23.08;100.00;101268.16;5051503;28;20162;-75
2021/08/12 00:50:03;;;;;;;12.23;7.77;;;;;;;23.09;100.00;101264.47;5051532;28;20172;-75
2021/08/12 00:52:32;;;;;;;13.47;8.10;;;;;;;23.04;100.00;101266.81;5051057;28;20168;-74
2021/08/12 00:54:58;;;;;;;35.50;7.67;;;;;;;23.17;100.00;101270.63;5051307;28;20262;-77
2021/08/12 00:57:24;;;;;;;10.23;7.20;;;;;;;23.20;100.00;101272.13;5051320;28;20491;-75
2021/08/12 00:59:49;;;;;;;9.83;7.53;;;;;;;23.19;100.00;101283.84;5051454;28;20407;-76
2021/08/12 01:02:15;;;;;;;15.67;8.57;;;;;;;23.23;100.00;101293.25;5051560;28;20169;-76
2021/08/12 01:04:44;;;;;;;11.73;8.97;;;;;;;23.16;100.00;101293.09;5050879;28;20230;-76
2021/08/12 01:07:21;;;;;;;14.40;10.80;;;;;;;23.13;100.00;101295.28;5051427;28;20780;-76
2021/08/12 01:10:29;;;;;;;14.57;10.60;;;;;;;23.12;100.00;101301.63;5051203;28;20403;-76
2021/08/12 01:13:05;;;;;;;15.53;10.17;;;;;;;23.11;100.00;101299.97;5011244;28;20433;-75
2021/08/12 01:15:49;;;;;;;16.23;10.93;;;;;;;23.07;100.00;101302.16;5050712;28;20439;-76
2021/08/12 01:18:43;;;;;;;16.33;9.33;;;;;;;22.98;100.00;101298.66;5050978;28;20494;-75
2021/08/12 01:21:17;;;;;;;16.00;8.50;;;;;;;23.01;100.00;101285.94;5051050;28;20422;-75
2021/08/12 01:23:43;;;;;;;11.87;8.70;;;;;;;23.05;100.00;101298.84;5050904;28;20412;-76
2021/08/12 01:26:09;;;;;;;16.80;7.90;;;;;;;23.11;100.00;101278.53;5050626;28;20420;-75
2021/08/12 01:28:43;;;;;;;9.33;7.40;;;;;;;23.25;100.00;101285.88;5050644;28;20172;-75
2021/08/12 01:31:23;;;;;;;10.93;8.43;;;;;;;23.21;100.00;101292.59;5050707;28;20786;-75
2021/08/12 01:34:43;;;;;;;13.27;8.30;;;;;;;23.06;100.00;101288.94;5050480;28;20415;-76
2021/08/12 01:37:14;;;;;;;13.03;7.70;;;;;;;23.03;100.00;101289.25;4969630;28;20435;-76
2021/08/12 01:39:42;;;;;;;10.00;7.87;;;;;;;23.00;100.00;101294.97;5044542;28;20439;-76
2021/08/12 01:42:12;;;;;;;12.27;8.33;;;;;;;23.00;100.00;101294.97;5050882;28;20423;-76
2021/08/12 01:44:39;;;;;;;15.10;9.60;;;;;;;22.95;100.00;101293.63;5050856;28;20471;-75
2021/08/12 01:47:06;;;;;;;10.70;7.47;;;;;;;22.96;100.00;101294.47;5050639;28;20418;-75
2021/08/12 01:49:33;;;;;;;12.57;8.00;;;;;;;22.91;100.00;101297.66;5050507;28;20501;-75
2021/08/12 01:51:59;;;;;;;11.43;8.13;;;;;;;22.90;100.00;101297.84;5050749;28;20412;-75
2021/08/12 01:54:27;;;;;;;10.10;7.70;;;;;;;22.85;100.00;101301.03;5050395;28;20501;-74
2021/08/12 01:56:53;;;;;;;11.90;8.43;;;;;;;22.84;100.00;101299.31;5050946;28;20508;-75
2021/08/12 01:59:22;;;;;;;15.57;8.70;;;;;;;22.88;100.00;101306.03;5051048;28;20466;-75
2021/08/12 02:01:47;;;;;;;12.00;7.13;;;;;;;22.85;100.00;101305.50;5050810;28;20436;-75
2021/08/12 02:04:22;;;;;;;10.77;7.63;;;;;;;22.77;100.00;101303.69;5050618;28;20502;-75
2021/08/12 02:06:49;;;;;;;13.80;8.43;;;;;;;22.81;100.00;101307.69;5050481;28;20644;-76
2021/08/12 02:09:15;;;;;;;8.90;6.63;;;;;;;22.76;100.00;101302.00;5050545;28;20403;-75
2021/08/12 02:11:40;;;;;;;13.00;8.33;;;;;;;22.75;100.00;101307.50;5050412;28;20477;-73
2021/08/12 02:14:06;;;;;;;9.03;7.63;;;;;;;22.70;100.00;101300.81;5050462;28;20649;-74
2021/08/12 02:16:33;;;;;;;9.10;7.23;;;;;;;22.73;100.00;101301.50;5050586;28;20700;-74
2021/08/12 02:18:59;;;;;;;15.57;7.03;;;;;;;22.69;100.00;101295.63;5050128;28;20215;-75
2021/08/12 02:21:50;;;;;;;10.30;6.77;;;;;;;22.71;100.00;101301.66;5050519;28;20498;-75
2021/08/12 02:24:37;;;;;;;8.90;6.50;;;;;;;22.77;100.00;101295.63;5050036;28;20416;-74
2021/08/12 02:27:08;;;;;;;15.63;6.30;;;;;;;22.82;100.00;101298.66;5050239;28;20502;-75
2021/08/12 02:29:34;;;;;;;8.67;5.90;;;;;;;22.82;100.00;101290.63;5050381;28;20399;-74
2021/08/12 02:32:06;;;;;;;10.70;7.57;;;;;;;22.87;100.00;101303.53;5050948;28;20458;-75
2021/08/12 02:34:33;;;;;;;12.97;7.90;;;;;;;22.84;100.00;101298.47;5050080;28;20419;-74
2021/08/12 02:37:03;;;;;;;12.10;6.80;;;;;;;22.76;100.00;101302.00;5050432;28;20408;-74
2021/08/12 02:39:29;;;;;;;12.20;7.60;;;;;;;22.73;100.00;101304.16;5050211;28;20530;-72
2021/08/12 02:41:57;;;;;;;10.70;7.93;;;;;;;22.64;100.00;101304.16;5050196;28;20522;-75
2021/08/12 02:44:23;;;;;;;11.23;8.17;;;;;;;22.63;100.00;101305.19;5050137;28;20215;-74
2021/08/12 02:46:50;;;;;;;17.33;10.43;;;;;;;22.52;100.00;101310.00;5050219;28;20415;-73
2021/08/12 02:49:17;;;;;;;10.00;8.07;;;;;;;22.55;100.00;101307.84;5050530;28;20407;-75
2021/08/12 02:51:43;;;;;;;13.13;8.10;;;;;;;22.50;100.00;101315.53;5050489;28;20392;-75
2021/08/12 02:54:09;;;;;;;11.77;8.57;;;;;;;22.43;100.00;101318.03;5049920;28;21008;-75
2021/08/12 02:56:36;;;;;;;11.90;7.27;;;;;;;22.40;100.00;101325.59;5035847;28;20621;-73
2021/08/12 02:59:03;;;;;;;13.17;7.90;;;;;;;22.39;100.00;101324.75;5050041;28;20177;-75
2021/08/12 03:01:30;;;;;;;13.37;8.10;;;;;;;22.37;100.00;101329.44;5049985;28;20407;-75
2021/08/12 03:03:57;;;;;;;11.90;8.10;;;;;;;22.33;100.00;101336.13;5053646;28;20907;-74
2021/08/12 03:06:24;;;;;;;10.67;7.90;;;;;;;22.32;100.00;101329.09;5053377;28;20416;-75
2021/08/12 03:08:50;;;;;;;11.03;7.67;;;;;;;22.31;100.00;101326.59;5053758;28;20407;-75
2021/08/12 03:11:17;;;;;;;12.00;8.20;;;;;;;22.33;100.00;101330.75;5053634;28;20411;-75
2021/08/12 03:13:46;;;;;;;11.63;7.13;;;;;;;22.30;100.00;101331.09;5053167;28;20243;-74
2021/08/12 03:16:12;;;;;;;16.73;7.23;;;;;;;22.36;100.00;101333.09;5053507;28;20458;-75
2021/08/12 03:18:38;;;;;;;12.73;6.47;;;;;;;22.36;100.00;101330.41;5053273;28;20407;-76
2021/08/12 03:21:10;;;;;;;10.63;6.87;;;;;;;22.46;100.00;101324.09;5053487;28;20184;-75
2021/08/12 03:23:36;;;;;;;10.73;6.53;;;;;;;22.42;100.00;101336.97;5053351;28;20408;-73
2021/08/12 03:26:02;;;;;;;9.37;6.23;;;;;;;22.46;100.00;101327.59;5053397;28;20438;-75
2021/08/12 03:28:27;;;;;;;8.00;5.20;;;;;;;22.51;100.00;101327.94;5053160;28;20177;-75
2021/08/12 03:30:53;;;;;;;10.93;5.57;;;;;;;22.55;100.00;101336.50;5053528;28;20845;-77
2021/08/12 03:33:18;;;;;;;10.50;7.23;;;;;;;22.53;100.00;101331.31;5052130;28;20267;-74
2021/08/12 03:35:44;;;;;;;11.50;6.10;;;;;;;22.67;100.00;101344.03;5053144;28;20371;-75
2021/08/12 03:38:09;;;;;;;12.20;5.40;;;;;;;22.65;100.00;101347.88;5053980;28;20301;-75
2021/08/12 03:40:35;;;;;;;9.07;6.10;;;;;;;22.64;100.00;101348.88;5053297;28;20181;-75
2021/08/12 03:43:00;;;;;;;15.00;6.03;;;;;;;22.64;100.00;101349.72;5053288;28;20274;-75
2021/08/12 03:45:26;;;;;;;8.00;5.63;;;;;;;22.64;100.00;101351.56;5053086;28;20180;-75
2021/08/12 03:47:51;;;;;;;13.40;6.10;;;;;;;22.74;100.00;101348.72;5053071;28;20199;-75
2021/08/12 03:50:17;;;;;;;9.83;6.30;;;;;;;22.71;100.00;101349.91;5052803;28;20204;-75
2021/08/12 03:52:43;;;;;;;10.60;6.50;;;;;;;22.77;100.00;101353.75;5052696;28;20209;-74
2021/08/12 03:55:09;;;;;;;12.17;6.40;;;;;;;22.76;100.00;101355.59;5052574;28;20275;-75
2021/08/12 03:57:39;;;;;;;13.70;6.37;;;;;;;22.75;100.00;101358.41;5052566;28;20173;-75
2021/08/12 04:00:05;;;;;;;10.33;6.50;;;;;;;22.75;100.00;101358.41;5052199;28;20415;-75
2021/08/12 04:02:31;;;;;;;9.17;7.00;;;;;;;22.83;100.00;101361.13;5052755;28;20434;-75
2021/08/12 04:04:56;;;;;;;11.20;6.70;;;;;;;22.84;100.00;101368.16;5052454;28;20419;-75
2021/08/12 04:07:22;;;;;;;10.50;6.00;;;;;;;22.89;100.00;101369.34;5052237;28;20192;-75
2021/08/12 04:09:47;;;;;;;12.93;5.50;;;;;;;22.85;100.00;101369.84;5051101;28;20169;-73
2021/08/12 04:12:13;;;;;;;10.20;6.00;;;;;;;22.89;100.00;101373.88;5052512;28;20260;-75
2021/08/12 04:14:38;;;;;;;13.73;6.00;;;;;;;22.94;100.00;101363.50;5050913;28;20169;-75
2021/08/12 04:17:04;;;;;;;17.17;6.20;;;;;;;22.89;100.00;101365.84;5052673;28;20184;-76
2021/08/12 04:19:29;;;;;;;14.10;6.50;;;;;;;23.00;100.00;101356.63;5052054;28;20303;-75
2021/08/12 04:21:55;;;;;;;15.60;6.60;;;;;;;23.10;100.00;101357.28;5052266;28;20244;-75
2021/08/12 04:24:20;;;;;;;16.40;6.87;;;;;;;23.20;100.00;101361.47;5052101;28;20179;-75
2021/08/12 04:26:46;;;;;;;8.33;5.93;;;;;;;23.27;100.00;101364.28;5037800;28;20178;-75
2021/08/12 04:29:11;;;;;;;10.90;5.83;;;;;;;23.37;100.00;101364.97;5052189;28;20169;-75
2021/08/12 04:31:37;;;;;;;7.90;5.57;;;;;;;23.35;100.00;101364.31;5051754;28;20173;-74
2021/08/12 04:34:02;;;;;;;16.90;6.83;;;;;;;23.37;100.00;101364.97;5045642;28;20661;-74
2021/08/12 04:36:28;;;;;;;12.13;7.37;;;;;;;23.42;100.00;101365.28;5044125;28;20197;-75
2021/08/12 04:38:53;;;;;;;10.10;6.93;;;;;;;23.41;100.00;101368.13;5051693;28;20165;-75
2021/08/12 04:41:19;;;;;;;14.00;8.10;;;;;;;23.42;100.00;101361.75;5051609;28;20188;-73
2021/08/12 04:43:44;;;;;;;9.73;6.57;;;;;;;23.43;100.00;101372.34;5051695;28;20173;-74
2021/08/12 04:46:10;;;;;;;10.10;7.07;;;;;;;23.50;100.00;101373.34;5050586;28;20177;-74
2021/08/12 04:48:36;;;;;;;13.13;7.00;;;;;;;23.57;100.00;101373.44;5051489;28;20251;-75
2021/08/12 04:51:01;;;;;;;16.03;7.50;;;;;;;23.48;100.00;101375.31;5051738;28;20518;-75
2021/08/12 04:53:27;;;;;;;21.17;7.23;;;;;;;23.56;100.00;101377.16;5051582;28;20196;-75
2021/08/12 04:55:52;;;;;;;17.90;7.10;;;;;;;23.60;100.00;101377.66;5050721;28;20195;-74
2021/08/12 04:58:18;;;;;;;10.90;6.97;;;;;;;23.65;100.00;101380.69;5051849;28;20176;-74
2021/08/12 05:00:43;;;;;;;10.40;6.10;;;;;;;23.72;100.00;101376.28;5051377;28;20161;-76
2021/08/12 05:03:09;;;;;;;32.10;9.60;;;;;;;23.75;100.00;101379.50;5049746;28;20180;-75
2021/08/12 05:05:35;;;;;;;11.60;6.10;;;;;;;23.78;100.00;101387.19;5051249;28;20173;-76
2021/08/12 05:08:01;;;;;;;9.13;5.87;;;;;;;23.85;100.00;101381.13;5051094;28;20179;-75
2021/08/12 05:10:27;;;;;;;13.00;6.60;;;;;;;23.96;100.00;101389.66;5051218;28;20772;-76
2021/08/12 05:12:53;;;;;;;11.63;6.47;;;;;;;24.07;100.00;101385.72;5051148;28;20418;-74
2021/08/12 05:15:19;;;;;;;15.17;6.23;;;;;;;24.20;100.00;101394.06;5051044;28;20193;-75
2021/08/12 05:17:44;;;;;;;9.63;6.40;;;;;;;24.33;100.00;101390.81;5050335;28;20164;-75
2021/08/12 05:20:10;;;;;;;13.60;6.47;;;;;;;24.42;100.00;101388.97;5051002;28;20223;-73
2021/08/12 05:22:36;;;;;;;12.03;6.13;;;;;;;24.56;100.00;101386.34;5050831;28;20172;-77
2021/08/12 05:25:04;;;;;;;17.43;9.60;;;;;;;24.63;100.00;101384.59;5051067;28;20436;-75
2021/08/12 05:27:29;;;;;;;9.50;5.50;;;;;;;24.70;100.00;101390.09;5051013;28;20165;-75
2021/08/12 05:29:55;;;;;;;14.60;6.17;;;;;;;24.79;100.00;101383.66;5050380;28;20462;-75
2021/08/12 05:32:20;;;;;;;11.17;6.13;;;;;;;24.88;100.00;101387.94;5050594;28;20169;-75
2021/08/12 05:34:45;;;;;;;10.97;6.30;;;;;;;24.96;100.00;101397.81;5050059;28;20597;-76
2021/08/12 05:37:11;;;;;;;9.80;6.30;;;;;;;25.13;100.00;101393.97;5050614;28;20657;-74
2021/08/12 05:39:37;;;;;;;11.00;5.20;;;;;;;25.29;100.00;101398.38;5049317;28;20184;-76
2021/08/12 05:42:02;;;;;;;10.70;5.47;;;;;;;25.39;100.00;101395.41;5050068;28;20177;-75
2021/08/12 05:44:28;;;;;;;11.30;5.80;;;;;;;25.49;100.00;101393.31;5050028;28;20180;-75
2021/08/12 05:46:53;;;;;;;14.43;6.60;;;;;;;25.63;100.00;101399.72;5049863;28;20705;-74
2021/08/12 05:49:23;;;;;;;10.30;6.37;;;;;;;25.71;100.00;101392.44;5049995;28;20173;-76
2021/08/12 05:51:48;;;;;;;14.67;6.40;;;;;;;25.80;100.00;101393.16;5049991;28;20221;-75
2021/08/12 05:54:14;;;;;;;10.90;5.60;;;;;;;25.90;100.00;101391.00;5050405;28;20428;-75
2021/08/12 05:56:39;;;;;;;11.00;5.30;;;;;;;25.99;100.00;101395.28;5049878;28;20619;-75
2021/08/12 05:59:05;;;;;;;26.97;5.87;;;;;;;26.10;100.00;101390.44;5050049;28;20173;-75
2021/08/12 06:01:30;;;;;;;11.10;5.60;;;;;;;26.22;100.00;101395.19;5050167;28;20557;-75
2021/08/12 06:03:56;;;;;;;13.23;5.80;;;;;;;26.31;100.00;101393.19;5050130;28;20192;-76
2021/08/12 06:06:21;;;;;;;10.37;5.97;;;;;;;26.44;100.00;101390.66;5050161;28;20187;-75
2021/08/12 06:08:47;;;;;;;13.27;5.77;;;;;;;26.51;100.00;101388.03;5050287;28;20219;-75
2021/08/12 06:11:12;;;;;;;9.30;5.60;;;;;;;26.51;100.00;101393.44;5050262;28;20627;-75
2021/08/12 06:13:38;;;;;;;11.23;7.10;;;;;;;26.51;100.00;101388.03;5050290;28;20166;-75
2021/08/12 06:16:04;;;;;;;15.10;6.43;;;;;;;26.60;100.00;101392.31;5050261;28;20337;-74
2021/08/12 06:18:30;;;;;;;12.10;5.70;;;;;;;26.69;100.00;101390.31;5049687;28;20161;-76
2021/08/12 06:20:56;;;;;;;14.73;7.20;;;;;;;26.78;100.00;101390.00;5049881;28;20449;-76
2021/08/12 06:23:22;;;;;;;10.70;6.50;;;;;;;26.95;100.00;101393.25;5048462;28;20518;-76
2021/08/12 06:25:47;;;;;;;11.53;6.50;;;;;;;27.11;100.00;101394.88;5048664;28;20177;-77
2021/08/12 06:28:13;;;;;;;10.30;6.20;;;;;;;27.22;100.00;101394.34;5034865;28;20268;-76
2021/08/12 06:30:38;;;;;;;17.60;6.60;;;;;;;27.27;100.00;101391.88;5049929;28;20161;-76
2021/08/12 06:33:06;;;;;;;15.40;7.13;;;;;;;27.40;100.00;101393.84;5050175;28;20231;-75
2021/08/12 06:35:32;;;;;;;11.57;5.93;;;;;;;27.54;100.00;101384.81;5049794;28;20185;-76
2021/08/12 06:37:58;;;;;;;11.57;5.53;;;;;;;27.64;100.00;101384.44;5051852;28;20407;-75
2021/08/12 06:40:24;;;;;;;7.90;4.97;;;;;;;27.80;100.00;101384.13;5036082;28;20458;-75
2021/08/12 06:42:51;;;;;;;6.70;4.63;;;;;;;27.97;100.00;101391.94;5053774;28;20400;-75
2021/08/12 06:45:21;;;;;;;16.47;6.90;;;;;;;27.99;100.00;101392.56;5053806;28;20207;-74
2021/08/12 06:47:50;;;;;;;12.27;5.90;;;;;;;28.06;100.00;101390.72;5053224;28;20826;-76
2021/08/12 06:50:17;;;;;;;10.40;5.30;;;;;;;28.20;100.00;101393.28;5053376;28;20426;-75
2021/08/12 06:52:43;;;;;;;7.70;4.60;;;;;;;28.35;100.00;101395.03;5051493;28;20817;-76
2021/08/12 06:55:09;;;;;;;8.40;4.70;;;;;;;28.46;100.00;101391.72;5052574;28;20443;-76
2021/08/12 06:57:34;;;;;;;12.20;5.50;;;;;;;28.62;100.00;101398.59;5053357;28;20169;-77
2021/08/12 07:00:00;;;;;;;13.97;4.70;;;;;;;28.70;100.00;101396.53;5053085;28;20399;-73
2021/08/12 07:02:26;;;;;;;8.50;4.53;;;;;;;28.79;100.00;101391.75;5053069;28;20408;-76
2021/08/12 07:04:52;;;;;;;7.00;4.50;;;;;;;28.92;100.00;101386.41;5052841;28;20564;-75
2021/08/12 07:07:17;;;;;;;16.47;4.80;;;;;;;29.02;100.00;101389.53;5053108;28;20247;-76
2021/08/12 07:09:43;;;;;;;6.27;5.13;;;;;;;29.11;100.00;101386.63;5052664;28;20223;-76
2021/08/12 07:12:08;;;;;;;10.60;4.37;;;;;;;29.18;100.00;101382.88;5053022;28;20220;-76
2021/08/12 07:14:34;;;;;;;7.33;5.63;;;;;;;29.33;100.00;101390.78;5052711;28;20169;-75
2021/08/12 07:17:00;;;;;;;9.57;5.27;;;;;;;29.50;100.00;101392.03;5052743;28;20189;-76
2021/08/12 07:19:25;;;;;;;8.27;5.63;;;;;;;29.51;100.00;101390.16;5052471;28;20677;-76
2021/08/12 07:21:52;;;;;;;6.80;4.47;;;;;;;29.50;100.00;101397.44;5052901;28;20173;-74
2021/08/12 07:24:18;;;;;;;6.20;4.30;;;;;;;29.43;100.00;101390.34;5052696;28;20180;-75
2021/08/12 07:26:46;;;;;;;13.43;5.57;;;;;;;29.53;100.00;101391.59;5052893;28;20935;-76
2021/08/12 07:29:12;;;;;;;19.13;6.00;;;;;;;29.67;100.00;101394.28;5052978;28;20876;-75
2021/08/12 07:31:38;;;;;;;7.53;4.57;;;;;;;29.67;100.00;101397.81;5053034;28;20501;-75
2021/08/12 07:34:03;;;;;;;8.97;4.90;;;;;;;29.73;100.00;101396.13;5051676;28;20226;-75
2021/08/12 07:36:29;;;;;;;7.27;4.33;;;;;;;29.79;100.00;101403.41;5052399;28;20455;-76
2021/08/12 07:38:55;;;;;;;15.87;5.37;;;;;;;29.84;100.00;101403.59;5052528;28;20664;-76
2021/08/12 07:41:20;;;;;;;8.43;5.40;;;;;;;29.83;100.00;101408.19;5052166;28;20177;-77
2021/08/12 07:43:46;;;;;;;10.57;5.00;;;;;;;29.82;100.00;101402.97;5051645;28;20227;-77
2021/08/12 07:46:12;;;;;;;9.80;5.30;;;;;;;29.84;100.00;101406.31;5053223;28;20216;-76
2021/08/12 07:48:39;;;;;;;7.27;4.60;;;;;;;29.90;100.00;101400.03;5052627;28;20874;-76
2021/08/12 07:51:05;;;;;;;10.00;5.90;;;;;;;30.00;100.00;101400.44;5052638;28;20176;-76
2021/08/12 07:53:30;;;;;;;11.10;5.70;;;;;;;30.17;100.00;101399.97;5053342;28;20428;-78
2021/08/12 07:55:59;;;;;;;10.30;5.27;;;;;;;30.17;100.00;101397.25;5052483;28;20958;-77
2021/08/12 07:58:24;;;;;;;7.70;5.40;;;;;;;30.26;100.00;101399.50;5053132;28;20598;-76
2021/08/12 08:00:50;;;;;;;10.90;5.13;;;;;;;30.33;100.00;101402.19;5052831;28;20416;-78
2021/08/12 08:03:16;;;;;;;12.63;5.40;;;;;;;30.37;100.00;101398.81;5052681;28;20164;-76
2021/08/12 08:05:41;;;;;;;14.63;6.00;;;;;;;30.39;100.00;101404.03;5052950;28;20173;-77
2021/08/12 08:08:07;;;;;;;15.80;6.20;;;;;;;30.47;100.00;101401.06;5052402;28;20417;-75
2021/08/12 08:10:33;;;;;;;8.17;5.57;;;;;;;30.54;100.00;101399.16;5052371;28;20552;-77
2021/08/12 08:12:59;;;;;;;8.27;5.53;;;;;;;30.47;100.00;101411.09;5052822;28;20260;-77
2021/08/12 08:15:24;;;;;;;12.13;8.87;;;;;;;30.38;100.00;101405.09;5052574;28;20235;-77
2021/08/12 08:17:50;;;;;;;9.10;5.93;;;;;;;30.53;100.00;101408.34;5052739;28;20260;-77
2021/08/12 08:20:16;;;;;;;8.60;5.60;;;;;;;30.53;100.00;101410.19;5052191;28;20287;-75
2021/08/12 08:22:41;;;;;;;13.37;5.40;;;;;;;30.64;100.00;101407.63;5052275;28;20588;-76
2021/08/12 08:25:08;;;;;;;15.23;6.43;;;;;;;30.69;100.00;101404.31;5038509;28;20923;-76
2021/08/12 08:27:34;;;;;;;12.13;5.77;;;;;;;30.80;100.00;101405.47;5050827;28;20613;-75
2021/08/12 08:30:00;;;;;;;10.70;5.80;;;;;;;30.81;100.00;101401.69;5052346;28;20416;-77
2021/08/12 08:32:26;;;;;;;8.00;5.33;;;;;;;31.02;100.00;101401.34;5052353;28;20165;-75
2021/08/12 08:34:53;;;;;;;9.27;5.73;;;;;;;31.17;100.00;101399.09;5052003;28;20609;-76
2021/08/12 08:37:19;;;;;;;10.00;5.43;;;;;;;31.32;100.00;101406.13;5051699;28;20173;-77
2021/08/12 08:39:44;;;;;;;13.63;5.90;;;;;;;31.51;100.00;101407.78;5051841;28;20445;-76
2021/08/12 08:42:12;;;;;;;10.13;6.63;;;;;;;31.68;100.00;101408.88;5051047;28;20196;-76
2021/08/12 08:44:40;;;;;;;8.00;5.70;;;;;;;31.58;100.00;101408.56;5051522;28;20248;-77
2021/08/12 08:47:09;;;;;;;14.83;6.50;;;;;;;31.39;100.00;101410.44;5051154;28;20419;-75
2021/08/12 08:49:37;;;;;;;12.10;6.13;;;;;;;31.25;100.00;101410.78;5051249;28;20408;-76
2021/08/12 08:52:04;;;;;;;9.30;5.20;;;;;;;31.40;100.00;101417.53;5051438;28;20415;-77
2021/08/12 08:54:32;;;;;;;8.87;5.70;;;;;;;31.35;100.00;101416.53;5051534;28;20465;-76
2021/08/12 08:56:59;;;;;;;10.77;5.57;;;;;;;31.33;100.00;101413.22;5051322;28;20455;-75
2021/08/12 08:59:26;;;;;;;7.30;5.37;;;;;;;30.94;100.00;101409.75;5049737;28;21024;-75
2021/08/12 09:01:51;;;;;;;7.37;5.53;;;;;;;30.77;100.00;101408.63;5051328;28;20502;-76
2021/08/12 09:04:17;;;;;;;7.97;5.37;;;;;;;30.82;100.00;101408.78;5050884;28;20476;-76
2021/08/12 09:06:43;;;;;;;8.20;5.57;;;;;;;30.66;100.00;101412.88;5050836;28;20168;-77
2021/08/12 09:09:10;;;;;;;8.50;6.47;;;;;;;30.89;100.00;101415.00;5051115;28;20462;-75
2021/08/12 09:11:37;;;;;;;14.30;7.80;;;;;;;31.09;100.00;101410.25;5050345;28;20192;-76
2021/08/12 09:14:31;;;;;;;13.30;5.70;;;;;;;31.40;100.00;101422.97;5051274;28;20418;-76
2021/08/12 09:16:57;;;;;;;9.87;6.33;;;;;;;31.47;100.00;101412.03;5050155;28;20481;-76
2021/08/12 09:19:24;;;;;;;6.33;5.00;;;;;;;31.64;100.00;101415.81;5050633;28;20983;-76
2021/08/12 09:22:09;;;;;;;7.87;5.27;;;;;;;31.74;100.00;101404.41;5050923;28;20513;-75
2021/08/12 09:24:51;;;;;;;6.70;5.10;;;;;;;31.85;100.00;101411.03;5050716;28;20515;-77
2021/08/12 09:27:20;;;;;;;14.00;6.57;;;;;;;31.74;100.00;101409.84;5050101;28;20407;-77
2021/08/12 09:29:45;;;;;;;15.53;7.93;;;;;;;31.46;100.00;101411.19;5050731;28;20481;-76
2021/08/12 09:32:11;;;;;;;7.73;5.57;;;;;;;31.57;100.00;101415.06;5050762;28;20414;-76
2021/08/12 09:34:41;;;;;;;6.80;5.53;;;;;;;31.85;100.00;101413.75;5050123;28;20238;-77
2021/08/12 09:37:08;;;;;;;9.00;5.80;;;;;;;32.05;100.00;101408.91;5050361;28;20193;-76
2021/08/12 09:39:34;;;;;;;8.33;6.33;;;;;;;32.05;100.00;101413.53;5049828;28;20436;-75
2021/08/12 09:42:01;;;;;;;14.27;6.30;;;;;;;32.23;100.00;101422.47;5049756;28;20419;-77
2021/08/12 09:44:35;;;;;;;9.50;5.47;;;;;;;32.45;100.00;101422.00;5050745;28;20822;-76
2021/08/12 09:47:25;;;;;;;9.70;6.60;;;;;;;32.51;100.00;101423.81;5050052;28;20399;-76
2021/08/12 09:49:51;;;;;;;8.20;6.77;;;;;;;32.09;100.00;101431.03;5049027;28;20509;-76
2021/08/12 09:52:22;;;;;;;8.70;5.83;;;;;;;31.82;100.00;101439.50;5050280;28;20779;-76
2021/08/12 09:54:56;;;;;;;7.53;5.67;;;;;;;31.46;100.00;101445.69;5050195;28;20525;-76
2021/08/12 09:57:22;;;;;;;7.13;5.90;;;;;;;31.37;100.00;101438.91;5050320;28;20418;-76
2021/08/12 09:59:49;;;;;;;8.27;5.13;;;;;;;31.36;100.00;101448.06;5049801;28;20460;-75
2021/08/12 10:02:14;;;;;;;10.93;6.03;;;;;;;31.41;100.00;101442.81;5049702;28;20169;-74
2021/08/12 10:04:40;;;;;;;8.13;6.10;;;;;;;31.45;100.00;101435.88;5049949;28;21535;-74
2021/08/12 10:07:05;;;;;;;10.17;6.70;;;;;;;31.36;100.00;101439.91;5050170;28;20608;-75
2021/08/12 10:09:41;;;;;;;9.83;6.00;;;;;;;31.16;100.00;101442.78;5050451;28;20564;-76
2021/08/12 10:12:09;;;;;;;9.23;6.33;;;;;;;31.36;100.00;101443.50;5051036;28;20160;-76
2021/08/12 10:14:35;;;;;;;9.93;6.00;;;;;;;31.68;100.00;101440.69;5054456;28;20495;-75
2021/08/12 10:17:02;;;;;;;14.83;6.50;;;;;;;32.09;100.00;101445.47;5054350;28;20636;-75
2021/08/12 10:19:29;;;;;;;9.73;6.20;;;;;;;32.34;100.00;101434.50;5053960;28;20516;-76
2021/08/12 10:21:55;;;;;;;12.67;7.07;;;;;;;32.41;100.00;101439.84;5053921;28;20414;-76
2021/08/12 10:24:25;;;;;;;12.93;6.40;;;;;;;32.22;100.00;101444.47;5054145;28;20792;-75
2021/08/12 10:26:52;;;;;;;18.47;12.80;;;;;;;31.90;100.00;101446.53;5054391;28;20200;-76
2021/08/12 10:29:23;;;;;;;10.53;6.50;;;;;;;31.93;100.00;101446.91;5053199;28;20482;-76
2021/08/12 10:31:52;;;;;;;10.87;6.13;;;;;;;31.93;100.00;101457.78;5052601;28;20498;-77
2021/08/12 10:34:18;;;;;;;32.93;29.90;;;;;;;32.13;100.00;101452.13;5054192;28;20540;-75
2021/08/12 10:36:48;;;;;;;19.13;10.40;;;;;;;31.97;100.00;101444.56;5054001;28;20540;-76
2021/08/12 10:39:14;;;;;;;10.73;7.03;;;;;;;32.11;100.00;101458.81;5054417;28;20435;-75
2021/08/12 10:41:41;;;;;;;8.47;7.33;;;;;;;32.39;100.00;101459.13;5053684;28;20407;-76
2021/08/12 10:44:07;;;;;;;12.23;7.47;;;;;;;32.45;100.00;101452.78;5053863;28;20712;-77
2021/08/12 10:46:37;;;;;;;10.47;6.80;;;;;;;32.28;100.00;101454.44;5054285;28;20423;-74
2021/08/12 10:49:34;;;;;;;9.70;7.37;;;;;;;32.34;100.00;101461.69;5054072;28;20161;-75
2021/08/12 10:52:10;;;;;;;13.60;7.80;;;;;;;32.38;100.00;101460.19;5054312;28;20407;-76
2021/08/12 10:54:38;;;;;;;17.83;7.63;;;;;;;32.42;100.00;101458.69;5053706;28;20402;-76
2021/08/12 10:57:16;;;;;;;16.50;8.17;;;;;;;32.65;100.00;101452.50;5053596;28;20759;-75
2021/08/12 10:59:43;;;;;;;9.47;7.10;;;;;;;32.49;100.00;101450.41;5053693;28;20407;-76
2021/08/12 11:02:27;;;;;;;9.60;7.43;;;;;;;32.53;100.00;101457.06;5053389;28;20407;-75
2021/08/12 11:04:55;;;;;;;8.80;7.03;;;;;;;32.64;100.00;101463.59;5053806;28;20552;-77
2021/08/12 11:07:36;;;;;;;8.50;6.80;;;;;;;32.75;100.00;101460.13;5042830;28;20419;-76
2021/08/12 11:10:03;;;;;;;13.47;7.70;;;;;;;32.90;100.00;101451.53;5052569;28;20411;-75
2021/08/12 11:12:56;;;;;;;10.87;8.37;;;;;;;32.96;100.00;101456.91;5053441;28;20409;-76
2021/08/12 11:15:37;;;;;;;11.70;7.87;;;;;;;33.50;100.00;101444.06;5053547;28;20975;-75